»·PEaware :: CKURN A39-E63

CKURN :: A39-E63

FLIGHT INFORMATION

Flight Status: Arrived
Operator: Unknown
More flights by this operator :: More flights under this callsign
Pilot: Iwan K. (32875)
Aircraft: PIPER PA-38 TOMAHAWK
(PA38)
More flights by this aircraft type
Origin: A39 Ak-Chin Regional
United States
Destination: E63 Gila Bend Mun
United States
More flights between these airports :: More routes between these airports
Route:
File this flight plan on PilotEdge
Remarks:
Altitude:
(Current/Filed)
6,500ft
Speed:
(Current/Filed)
95kts
Departed: 13-Feb-21 11:51 AM
Arrived: 13-Feb-21 12:32 PM
Distance/Time
Traveled:
38nm/0:40
Distance/Time
To Go:
Arrived

Flight Plot

Page will automatically refresh every two minutes.

Flight plan parsing failed; only flown route is shown


Map Options




Map Legend


Flown Route
Filed Route
Departure Airport
Arrival Airport
Navaid (VOR, NDB)
Fix

Horizontal Profiles

Position Reports

Time Latitude Longitude Heading Altitude Ground
Speed
13-Feb-21 11:29 32.990713 -111.917426 220 1295ft 0kts
13-Feb-21 11:30 32.990733 -111.917607 10 1294ft 4kts
13-Feb-21 11:31 32.992220 -111.915743 48 1297ft 10kts
13-Feb-21 11:32 32.993102 -111.914581 48 1300ft 0kts
13-Feb-21 11:36 32.990713 -111.917426 220 1295ft 0kts
13-Feb-21 11:37 32.991237 -111.917066 52 1295ft 5kts
13-Feb-21 11:38 32.992811 -111.914979 47 1298ft 11kts
13-Feb-21 11:39 32.994015 -111.913373 25 1307ft 4kts
13-Feb-21 11:40 32.994122 -111.913424 316 1308ft 0kts
13-Feb-21 11:41 32.994122 -111.913424 316 1308ft 0kts
13-Feb-21 11:42 32.992891 -111.915786 221 1297ft 24kts
13-Feb-21 11:43 32.990613 -111.918416 144 1293ft 0kts
13-Feb-21 11:44 32.990713 -111.917426 220 1295ft 0kts
13-Feb-21 11:45 32.990713 -111.917426 220 1295ft 0kts
13-Feb-21 11:46 32.990712 -111.917426 220 1295ft 0kts
13-Feb-21 11:47 32.991600 -111.916569 47 1296ft 11kts
13-Feb-21 11:48 32.993731 -111.913744 49 1302ft 10kts
13-Feb-21 11:49 32.994124 -111.913428 322 1308ft 1kts
13-Feb-21 11:50 32.987362 -111.923539 229 1601ft 68kts
13-Feb-21 11:51 32.983395 -111.943438 266 2476ft 64kts
13-Feb-21 11:52 32.983751 -111.967009 254 3209ft 73kts
13-Feb-21 11:53 32.975687 -111.987810 231 3960ft 69kts
13-Feb-21 11:54 32.962978 -112.003606 200 4675ft 64kts
13-Feb-21 11:55 32.949621 -112.017059 218 5352ft 64kts
13-Feb-21 11:56 32.938670 -112.033690 232 5984ft 65kts
13-Feb-21 11:57 32.929989 -112.052317 237 6533ft 66kts
13-Feb-21 11:58 32.922521 -112.073026 245 6657ft 71kts
13-Feb-21 11:59 32.917997 -112.100338 254 6397ft 92kts
13-Feb-21 12:00 32.913642 -112.131433 259 6181ft 102kts
13-Feb-21 12:01 32.905040 -112.160853 261 6476ft 88kts
13-Feb-21 12:02 32.899808 -112.191945 274 6410ft 94kts
13-Feb-21 12:03 32.905610 -112.221523 289 6340ft 87kts
13-Feb-21 12:04 32.926698 -112.241665 317 6304ft 98kts
13-Feb-21 12:05 32.952101 -112.254879 323 6323ft 98kts
13-Feb-21 12:06 32.968990 -112.277789 284 6346ft 89kts
13-Feb-21 12:07 32.974060 -112.305203 262 6423ft 81kts
13-Feb-21 12:08 32.968525 -112.330781 237 6373ft 79kts
13-Feb-21 12:09 32.952898 -112.348762 214 6365ft 79kts
13-Feb-21 12:10 32.943988 -112.370046 273 6355ft 84kts
13-Feb-21 12:11 32.948013 -112.397409 269 6351ft 83kts
13-Feb-21 12:12 32.953535 -112.424545 273 6341ft 84kts
13-Feb-21 12:13 32.950957 -112.451038 245 6348ft 79kts
13-Feb-21 12:14 32.945517 -112.476896 259 6350ft 82kts
13-Feb-21 12:15 32.946747 -112.504235 272 6357ft 83kts
13-Feb-21 12:16 32.953263 -112.531187 282 6361ft 86kts
13-Feb-21 12:17 32.957987 -112.558107 260 6273ft 82kts
13-Feb-21 12:18 32.949449 -112.582091 231 5789ft 78kts
13-Feb-21 12:19 32.934835 -112.601062 206 5016ft 79kts
13-Feb-21 12:20 32.915702 -112.592009 122 4119ft 87kts
13-Feb-21 12:21 32.922560 -112.565303 46 3144ft 94kts
13-Feb-21 12:22 32.944676 -112.565369 288 2333ft 89kts
13-Feb-21 12:24 32.937638 -112.591061 233 2489ft 80kts
13-Feb-21 12:25 32.919577 -112.586128 123 3057ft 84kts
13-Feb-21 12:26 32.923763 -112.558972 49 3538ft 96kts
13-Feb-21 12:27 32.948972 -112.550653 341 3999ft 95kts
13-Feb-21 12:28 32.964100 -112.572828 288 4067ft 88kts
13-Feb-21 12:29 32.971683 -112.600150 275 3150ft 87kts
13-Feb-21 12:30 32.977759 -112.627589 293 2176ft 89kts
13-Feb-21 12:31 32.971746 -112.652168 233 1346ft 79kts
13-Feb-21 12:32 32.961442 -112.671131 236 782ft 40kts
13-Feb-21 12:33 32.960473 -112.674109 325 778ft 0kts
13-Feb-21 12:34 32.959627 -112.676109 237 775ft 14kts
13-Feb-21 12:35 32.959121 -112.679091 300 771ft 6kts
13-Feb-21 12:36 32.959175 -112.679020 140 772ft 0kts
13-Feb-21 12:37 32.959175 -112.679020 140 772ft 0kts

Navigation Log

Ident Type
Flight plan parsing failed, navigation log unavailable